PILOTS ONLINE: 418    ATC ONLINE: 65

Location

IATA CWA
City Mosinee
Country  United States
Latitude 44° 46' 39" N
Longitude 89° 40' 0" W
Elevation 1277 ft
Type Medium Airport

Weather

METAR
2014/07/10 15:45
KCWA 101545Z 17007KT 10SM SKC 21/14 A3016
TAF
2014/07/10 12:27
TAF KCWA 101126Z 1012/1112 VRB03KT P6SM SKC 
     FM101500 17008KT P6SM SCT045 
     FM110300 15006KT P6SM SCT100 BKN200 PROB30 1111/1112 5SM -SHRA BKN060

Runways

08/26 7645 ft / 150 ft
17/35 6501 ft / 150 ft

Outbound flights

Inbound flights


Spotted incorrect airport information? Please login with your VATSIM ID.